createdAt,value
2023-04-21T00:00:07.815Z,4.05
2023-04-21T00:02:39.557Z,5.68
2023-04-21T00:05:10.849Z,5.20
2023-04-21T00:07:38.383Z,5.70
2023-04-21T00:10:07.584Z,4.70
2023-04-21T00:12:34.700Z,4.75
2023-04-21T00:15:01.757Z,4.38
2023-04-21T00:17:28.782Z,4.85
2023-04-21T00:19:56.152Z,3.97
2023-04-21T00:22:23.252Z,5.20
2023-04-21T00:24:50.288Z,6.95
2023-04-21T00:27:17.419Z,5.28
2023-04-21T00:29:44.737Z,4.80
2023-04-21T00:32:12.129Z,4.72
2023-04-21T00:34:39.107Z,6.13
2023-04-21T00:37:06.100Z,6.55
2023-04-21T00:39:33.068Z,5.22
2023-04-21T00:42:00.021Z,5.25
2023-04-21T00:44:28.048Z,4.90
2023-04-21T00:46:55.337Z,4.50
2023-04-21T00:49:24.116Z,6.68
2023-04-21T00:51:52.225Z,5.38
2023-04-21T00:54:20.026Z,5.95
2023-04-21T00:56:47.221Z,5.03
2023-04-21T00:59:14.257Z,4.68
2023-04-21T01:01:41.549Z,5.20
2023-04-21T01:04:10.554Z,5.93
2023-04-21T01:06:38.094Z,4.68
2023-04-21T01:09:05.419Z,6.45
2023-04-21T01:11:32.536Z,5.57
2023-04-21T01:14:00.786Z,5.38
2023-04-21T01:16:27.951Z,4.80
2023-04-21T01:18:55.111Z,5.00
2023-04-21T01:21:23.744Z,6.03
2023-04-21T01:23:51.031Z,5.45
2023-04-21T01:26:19.515Z,5.85
2023-04-21T01:28:47.772Z,5.60
2023-04-21T01:31:18.492Z,5.80
2023-04-21T01:33:45.688Z,5.10
2023-04-21T01:36:13.160Z,5.82
2023-04-21T01:38:41.687Z,4.90
2023-04-21T01:41:09.790Z,5.30
2023-04-21T01:43:37.418Z,5.88
2023-04-21T01:46:05.872Z,6.53
2023-04-21T01:48:32.941Z,5.10
2023-04-21T01:50:59.894Z,4.45
2023-04-21T01:53:27.031Z,4.45
2023-04-21T01:55:54.143Z,5.00
2023-04-21T01:58:21.858Z,5.15
2023-04-21T02:00:48.850Z,4.85
2023-04-21T02:03:15.919Z,4.43
2023-04-21T02:05:46.023Z,4.97
2023-04-21T02:08:13.338Z,4.82
2023-04-21T02:10:41.550Z,4.32
2023-04-21T02:13:12.028Z,4.55
2023-04-21T02:15:39.373Z,5.00
2023-04-21T02:18:08.378Z,4.85
2023-04-21T02:20:35.828Z,4.70
2023-04-21T02:23:02.925Z,5.22
2023-04-21T02:25:30.757Z,4.93
2023-04-21T02:27:57.707Z,4.30
2023-04-21T02:30:27.819Z,4.22
2023-04-21T02:32:54.858Z,5.22
2023-04-21T02:35:21.912Z,5.32
2023-04-21T02:37:50.801Z,5.63
2023-04-21T02:40:17.813Z,5.53
2023-04-21T02:42:44.866Z,6.03
2023-04-21T02:45:11.998Z,4.80
2023-04-21T02:47:38.921Z,5.97
2023-04-21T02:50:06.736Z,5.65
2023-04-21T02:52:38.077Z,6.22
2023-04-21T02:55:05.458Z,6.82
2023-04-21T02:57:32.327Z,5.10
2023-04-21T03:00:01.369Z,5.55
2023-04-21T03:02:28.500Z,6.13
2023-04-21T03:04:56.624Z,5.15
2023-04-21T03:07:23.832Z,6.75
2023-04-21T03:09:50.769Z,6.13
2023-04-21T03:12:17.711Z,6.75
2023-04-21T03:14:44.878Z,6.18
2023-04-21T03:17:11.837Z,4.90
2023-04-21T03:19:38.837Z,6.13
2023-04-21T03:22:06.549Z,5.20
2023-04-21T03:24:34.125Z,4.70
2023-04-21T03:27:02.817Z,6.70
2023-04-21T03:29:32.132Z,5.40
2023-04-21T03:31:59.159Z,4.70
2023-04-21T03:34:26.310Z,5.18
2023-04-21T03:36:53.957Z,5.50
2023-04-21T03:39:21.979Z,6.53
2023-04-21T03:41:51.429Z,5.32
2023-04-21T03:44:18.432Z,5.63
2023-04-21T03:46:45.545Z,5.88
2023-04-21T03:49:12.584Z,4.93
2023-04-21T03:51:39.665Z,4.93
2023-04-21T03:54:06.618Z,5.57
2023-04-21T03:56:33.567Z,5.70
2023-04-21T03:59:00.870Z,6.38
2023-04-21T04:01:27.830Z,6.35
2023-04-21T04:03:54.959Z,6.57
2023-04-21T04:06:21.997Z,5.40
2023-04-21T04:08:49.150Z,6.07
2023-04-21T04:11:16.167Z,6.60
2023-04-21T04:13:43.174Z,5.80
2023-04-21T04:16:10.340Z,7.50
2023-04-21T04:18:37.352Z,7.13
2023-04-21T04:21:07.923Z,7.32
2023-04-21T04:23:35.477Z,7.38
2023-04-21T04:26:05.709Z,6.60
2023-04-21T04:28:33.778Z,6.63
2023-04-21T04:31:01.036Z,7.35
2023-04-21T04:33:28.060Z,6.18
2023-04-21T04:35:55.026Z,6.90
2023-04-21T04:38:23.115Z,8.02
2023-04-21T04:40:57.785Z,10.13
2023-04-21T04:43:26.050Z,8.32
2023-04-21T04:45:53.442Z,8.75
2023-04-21T04:48:20.479Z,9.50
2023-04-21T04:50:47.438Z,8.57
2023-04-21T04:53:14.400Z,7.95
2023-04-21T04:55:41.397Z,8.10
2023-04-21T04:58:08.503Z,8.35
2023-04-21T05:00:37.017Z,8.02
2023-04-21T05:03:04.243Z,9.15
2023-04-21T05:05:31.488Z,9.15
2023-04-21T05:07:58.582Z,8.07
2023-04-21T05:10:25.872Z,10.70
2023-04-21T05:12:52.805Z,8.05
2023-04-21T05:15:19.932Z,8.88
2023-04-21T05:17:46.913Z,9.65
2023-04-21T05:20:14.112Z,8.15
2023-04-21T05:22:41.241Z,10.00
2023-04-21T05:25:10.653Z,10.02
2023-04-21T05:27:37.705Z,8.90
2023-04-21T05:30:04.996Z,8.90
2023-04-21T05:32:32.198Z,11.07
2023-04-21T05:35:00.298Z,12.07
2023-04-21T05:37:27.521Z,10.20
2023-04-21T05:39:55.255Z,11.23
2023-04-21T05:42:22.495Z,11.55
2023-04-21T05:44:49.550Z,13.90
2023-04-21T05:47:17.862Z,11.70
2023-04-21T05:49:50.336Z,11.38
2023-04-21T05:52:17.985Z,11.82
2023-04-21T05:54:45.260Z,14.02
2023-04-21T05:57:12.282Z,13.02
2023-04-21T05:59:39.413Z,13.10
2023-04-21T06:02:06.713Z,12.65
2023-04-21T06:04:34.016Z,10.15
2023-04-21T06:07:09.190Z,11.32
2023-04-21T06:09:36.870Z,15.40
2023-04-21T06:12:04.211Z,12.27
2023-04-21T06:14:32.755Z,12.63
2023-04-21T06:16:59.844Z,13.30
2023-04-21T06:19:26.952Z,11.95
2023-04-21T06:21:53.968Z,14.23
2023-04-21T06:24:25.299Z,12.45
2023-04-21T06:26:53.822Z,13.88
2023-04-21T06:29:21.084Z,12.02
2023-04-21T06:31:48.428Z,13.45
2023-04-21T06:34:15.976Z,14.38
2023-04-21T06:36:43.047Z,13.18
2023-04-21T06:39:10.106Z,13.00
2023-04-21T06:41:37.143Z,12.27
2023-04-21T06:44:04.089Z,11.18
2023-04-21T06:46:31.417Z,12.15
2023-04-21T06:48:58.646Z,14.38
2023-04-21T06:51:25.975Z,11.65
2023-04-21T06:53:53.013Z,13.25
2023-04-21T06:56:21.035Z,11.65
2023-04-21T06:58:48.132Z,11.93
2023-04-21T07:01:15.318Z,10.63
2023-04-21T07:03:42.561Z,11.52
2023-04-21T07:06:09.620Z,11.57
2023-04-21T07:08:37.676Z,11.85
2023-04-21T07:11:05.075Z,11.82
2023-04-21T07:13:43.662Z,11.98
2023-04-21T07:16:14.831Z,12.15
2023-04-21T07:18:42.165Z,13.63
2023-04-21T07:21:09.204Z,10.60
2023-04-21T07:23:36.135Z,11.02
2023-04-21T07:26:03.177Z,11.45
2023-04-21T07:28:30.158Z,11.30
2023-04-21T07:30:57.768Z,11.70
2023-04-21T07:33:24.769Z,11.70
2023-04-21T07:35:51.923Z,11.00
2023-04-21T07:38:18.915Z,12.70
2023-04-21T07:40:45.930Z,10.48
2023-04-21T07:43:13.040Z,12.45
2023-04-21T07:45:40.305Z,10.38
2023-04-21T07:48:07.866Z,9.93
2023-04-21T07:50:37.750Z,10.43
2023-04-21T07:53:05.661Z,11.27
2023-04-21T07:55:32.656Z,12.07
2023-04-21T07:57:59.839Z,10.85
2023-04-21T08:00:26.963Z,10.88
2023-04-21T08:02:54.171Z,9.00
2023-04-21T08:05:21.386Z,10.80
2023-04-21T08:07:48.467Z,10.45
2023-04-21T08:10:15.606Z,9.35
2023-04-21T08:12:42.623Z,9.38
2023-04-21T08:15:12.498Z,9.60
2023-04-21T08:17:39.611Z,9.27
2023-04-21T08:20:07.431Z,8.65
2023-04-21T08:22:36.595Z,8.80
2023-04-21T08:25:06.906Z,7.15
2023-04-21T08:27:33.919Z,7.50
2023-04-21T08:30:01.022Z,7.63
2023-04-21T08:32:28.081Z,7.18
2023-04-21T08:34:55.411Z,6.97
2023-04-21T08:37:23.244Z,5.88
2023-04-21T08:39:50.943Z,6.65
2023-04-21T08:42:19.020Z,6.30
2023-04-21T08:44:46.966Z,7.18
2023-04-21T08:47:16.568Z,6.95
2023-04-21T08:49:45.532Z,6.25
2023-04-21T08:52:16.474Z,5.78
2023-04-21T08:54:43.880Z,6.70
2023-04-21T08:59:40.934Z,5.95
2023-04-21T09:02:26.445Z,6.05
2023-04-21T09:04:55.848Z,5.57
2023-04-21T09:07:39.175Z,6.88
2023-04-21T09:10:09.038Z,5.75
2023-04-21T09:12:40.084Z,6.07
2023-04-21T09:15:10.319Z,5.95
2023-04-21T09:17:38.666Z,5.82
2023-04-21T09:20:17.592Z,5.40
2023-04-21T09:22:46.093Z,5.03
2023-04-21T09:25:17.868Z,6.07
2023-04-21T09:27:45.653Z,5.75
2023-04-21T09:30:12.962Z,6.72
2023-04-21T09:32:40.862Z,5.53
2023-04-21T09:35:11.791Z,6.15
2023-04-21T09:37:40.135Z,5.57
2023-04-21T09:40:07.488Z,7.30
2023-04-21T09:42:38.870Z,5.53
2023-04-21T09:45:32.406Z,5.30
2023-04-21T09:48:02.993Z,5.53
2023-04-21T09:53:02.846Z,5.88
2023-04-21T09:55:31.078Z,5.13
2023-04-21T09:58:00.163Z,5.32
2023-04-21T10:00:28.940Z,4.90
2023-04-21T10:03:01.058Z,5.30
2023-04-21T10:05:31.743Z,4.22
2023-04-21T10:07:59.462Z,5.10
2023-04-21T10:10:29.069Z,5.25
2023-04-21T10:12:56.291Z,4.43
2023-04-21T10:15:35.545Z,4.22
2023-04-21T10:18:21.758Z,4.40
2023-04-21T10:21:12.048Z,4.13
2023-04-21T10:23:44.411Z,5.22
2023-04-21T10:26:32.977Z,4.07
2023-04-21T10:29:02.064Z,5.25
2023-04-21T10:31:31.675Z,4.97
2023-04-21T10:34:13.583Z,4.10
2023-04-21T10:39:40.286Z,4.57
2023-04-21T10:42:13.398Z,3.88
2023-04-21T10:44:43.858Z,3.88
2023-04-21T10:47:11.474Z,4.15
2023-04-21T10:49:40.491Z,4.35
2023-04-21T10:52:09.868Z,4.18
2023-04-21T10:54:43.103Z,3.95
2023-04-21T10:57:12.046Z,4.65
2023-04-21T10:59:39.703Z,3.75
2023-04-21T11:02:17.245Z,4.70
2023-04-21T11:04:48.361Z,4.57
2023-04-21T11:07:19.599Z,4.00
2023-04-21T11:09:48.606Z,4.15
2023-04-21T11:12:20.023Z,5.25
2023-04-21T11:14:50.661Z,4.13
2023-04-21T11:17:19.337Z,3.85
2023-04-21T11:19:48.186Z,4.05
2023-04-21T11:22:17.500Z,3.90
2023-04-21T11:24:46.289Z,4.57
2023-04-21T11:27:14.650Z,3.42
2023-04-21T11:29:42.335Z,4.20
2023-04-21T11:32:09.630Z,3.95
2023-04-21T11:34:39.872Z,3.40
2023-04-21T11:37:14.343Z,3.70
2023-04-21T11:39:42.265Z,3.70
2023-04-21T11:42:09.868Z,3.08
2023-04-21T11:44:43.715Z,4.28
2023-04-21T11:47:14.546Z,3.00
2023-04-21T11:49:50.603Z,3.87
2023-04-21T11:52:37.558Z,3.42
2023-04-21T11:55:11.362Z,3.13
2023-04-21T11:57:40.931Z,3.30
2023-04-21T12:00:11.959Z,3.10
2023-04-21T12:02:39.409Z,3.78
2023-04-21T12:05:13.666Z,3.92
2023-04-21T12:07:46.269Z,3.92
2023-04-21T12:10:19.248Z,4.38
2023-04-21T12:12:46.893Z,3.00
2023-04-21T12:15:20.184Z,3.25
2023-04-21T12:17:49.320Z,2.85
2023-04-21T12:20:17.841Z,2.53
2023-04-21T12:22:45.381Z,2.50
2023-04-21T12:25:12.683Z,2.63
2023-04-21T12:27:52.522Z,2.78
2023-04-21T12:30:20.781Z,2.58
2023-04-21T12:32:48.373Z,2.28
2023-04-21T12:35:15.883Z,2.60
2023-04-21T12:37:42.988Z,2.25
2023-04-21T12:40:11.143Z,2.40
2023-04-21T12:42:38.587Z,2.70
2023-04-21T12:45:06.794Z,3.47
2023-04-21T12:47:37.820Z,3.35
2023-04-21T12:50:05.460Z,5.75
2023-04-21T12:52:32.534Z,4.63
2023-04-21T12:54:59.516Z,4.97
2023-04-21T12:57:26.732Z,4.60
2023-04-21T12:59:54.077Z,5.60
2023-04-21T13:02:21.359Z,5.70
2023-04-21T13:04:59.034Z,4.05
2023-04-21T13:07:27.046Z,4.97
2023-04-21T13:10:19.335Z,4.82
2023-04-21T13:12:46.357Z,3.90
2023-04-21T13:15:13.363Z,3.88
2023-04-21T13:17:43.255Z,3.78
2023-04-21T13:20:19.227Z,3.97
2023-04-21T13:22:50.372Z,3.80
2023-04-21T13:25:18.164Z,3.90
2023-04-21T13:27:46.820Z,4.15
2023-04-21T13:30:15.424Z,4.18
2023-04-21T13:32:48.909Z,4.32
2023-04-21T13:35:17.295Z,4.07
2023-04-21T13:37:44.215Z,4.18
2023-04-21T13:40:12.286Z,4.50
2023-04-21T13:42:43.430Z,5.43
2023-04-21T13:45:11.266Z,4.57
2023-04-21T13:47:38.976Z,4.50
2023-04-21T13:50:07.168Z,5.72
2023-04-21T13:52:36.597Z,5.15
2023-04-21T13:55:05.336Z,5.25
2023-04-21T13:57:32.629Z,5.85
2023-04-21T13:59:59.759Z,4.57
2023-04-21T14:02:27.527Z,5.18
2023-04-21T14:04:54.937Z,4.32
2023-04-21T14:07:24.012Z,5.47
2023-04-21T14:09:55.464Z,6.47
2023-04-21T14:12:23.070Z,4.72
2023-04-21T14:14:51.754Z,5.10
2023-04-21T14:17:21.301Z,4.68
2023-04-21T14:19:48.540Z,5.38
2023-04-21T14:22:16.053Z,4.90
2023-04-21T14:24:43.207Z,6.40
2023-04-21T14:27:10.861Z,6.68
2023-04-21T14:29:37.935Z,6.60
2023-04-21T14:32:05.423Z,7.10
2023-04-21T14:34:32.471Z,5.97
2023-04-21T14:37:00.711Z,7.00
2023-04-21T14:39:28.069Z,6.53
2023-04-21T14:41:55.149Z,6.60
2023-04-21T14:44:22.892Z,6.15
2023-04-21T14:47:00.918Z,6.25
2023-04-21T14:49:33.702Z,5.43
2023-04-21T14:52:01.992Z,5.18
2023-04-21T14:54:29.183Z,5.93
2023-04-21T14:57:10.551Z,6.03
2023-04-21T14:59:46.654Z,5.45
2023-04-21T15:02:14.191Z,5.47
2023-04-21T15:04:41.605Z,5.47
2023-04-21T15:07:08.764Z,5.70
2023-04-21T15:09:37.780Z,7.30
2023-04-21T15:12:06.352Z,6.32
2023-04-21T15:14:33.722Z,5.93
2023-04-21T15:17:00.923Z,7.10
2023-04-21T15:19:28.269Z,7.10
2023-04-21T15:21:55.456Z,7.05
2023-04-21T15:24:22.805Z,6.43
2023-04-21T15:26:52.202Z,7.80
2023-04-21T15:29:19.643Z,7.40
2023-04-21T15:31:46.909Z,7.00
2023-04-21T15:34:14.146Z,7.00
2023-04-21T15:36:41.470Z,7.63
2023-04-21T15:39:10.270Z,6.63
2023-04-21T15:41:37.696Z,6.88
2023-04-21T15:44:05.534Z,6.95
2023-04-21T15:46:35.261Z,7.10
2023-04-21T15:49:03.289Z,6.82
2023-04-21T15:51:41.102Z,6.85
2023-04-21T15:54:09.131Z,6.85
2023-04-21T15:56:36.136Z,6.82
2023-04-21T15:59:03.909Z,6.78
2023-04-21T16:01:31.474Z,7.45
2023-04-21T16:03:59.362Z,7.80
2023-04-21T16:06:29.403Z,7.13
2023-04-21T16:09:00.606Z,7.30
2023-04-21T16:11:29.266Z,6.68
2023-04-21T16:13:58.285Z,7.03
2023-04-21T16:16:25.474Z,7.57
2023-04-21T16:18:52.821Z,6.93
2023-04-21T16:21:20.901Z,6.28
2023-04-21T16:23:48.190Z,7.03
2023-04-21T16:26:15.667Z,7.00
2023-04-21T16:28:42.823Z,6.43
2023-04-21T16:31:09.770Z,6.32
2023-04-21T16:33:36.796Z,5.05
2023-04-21T16:36:04.015Z,6.18
2023-04-21T16:38:31.125Z,5.43
2023-04-21T16:40:58.031Z,5.20
2023-04-21T16:43:25.360Z,5.68
2023-04-21T16:45:53.539Z,5.38
2023-04-21T16:48:20.625Z,5.65
2023-04-21T16:50:47.656Z,5.40
2023-04-21T16:53:14.786Z,5.13
2023-04-21T16:55:41.913Z,5.50
2023-04-21T16:58:09.018Z,5.13
2023-04-21T17:00:37.759Z,4.70
2023-04-21T17:03:09.269Z,5.00
2023-04-21T17:05:38.498Z,5.32
2023-04-21T17:08:07.060Z,5.07
2023-04-21T17:10:34.167Z,4.90
2023-04-21T17:13:01.410Z,5.30
2023-04-21T17:15:31.027Z,5.78
2023-04-21T17:17:58.102Z,6.55
2023-04-21T17:20:25.457Z,5.82
2023-04-21T17:22:52.549Z,2.20
2023-04-21T17:25:19.537Z,1.50
2023-04-21T17:27:46.718Z,2.05
2023-04-21T17:30:19.111Z,3.05
2023-04-21T17:32:46.720Z,1.50
2023-04-21T17:35:13.936Z,2.10
2023-04-21T17:37:43.391Z,1.80
2023-04-21T17:40:11.290Z,2.30
2023-04-21T17:42:40.366Z,2.33
2023-04-21T17:45:08.635Z,2.05
2023-04-21T17:47:38.995Z,2.13
2023-04-21T17:50:06.549Z,3.65
2023-04-21T17:52:34.407Z,3.55
2023-04-21T17:55:01.762Z,3.00
2023-04-21T17:57:29.400Z,2.40
2023-04-21T17:59:56.642Z,2.08
2023-04-21T18:02:23.748Z,1.85
2023-04-21T18:04:51.619Z,2.35
2023-04-21T18:07:21.215Z,1.90
2023-04-21T18:09:51.385Z,1.70
2023-04-21T18:12:18.688Z,1.88
2023-04-21T18:14:45.632Z,2.38
2023-04-21T18:17:14.147Z,2.08
2023-04-21T18:19:46.180Z,2.08
2023-04-21T18:22:13.240Z,1.60
2023-04-21T18:24:40.863Z,1.40
2023-04-21T18:27:10.809Z,2.35
2023-04-21T18:29:38.331Z,2.05
2023-04-21T18:32:10.853Z,2.25
2023-04-21T18:34:38.284Z,1.98
2023-04-21T18:37:05.717Z,3.03
2023-04-21T18:39:33.989Z,2.83
2023-04-21T18:42:01.518Z,2.72
2023-04-21T18:44:29.013Z,1.83
2023-04-21T18:46:56.437Z,2.03
2023-04-21T18:49:23.526Z,2.55
2023-04-21T18:51:50.664Z,1.98
2023-04-21T18:54:17.777Z,2.35
2023-04-21T18:56:45.994Z,2.10
2023-04-21T18:59:16.098Z,2.40
2023-04-21T19:01:44.481Z,2.72
2023-04-21T19:04:11.711Z,2.50
2023-04-21T19:06:39.046Z,2.80
2023-04-21T19:09:06.670Z,2.22
2023-04-21T19:11:34.404Z,2.55
2023-04-21T19:14:01.728Z,2.75
2023-04-21T19:16:28.871Z,2.53
2023-04-21T19:18:56.174Z,2.60
2023-04-21T19:21:23.208Z,2.50
2023-04-21T19:23:50.801Z,2.65
2023-04-21T19:26:18.408Z,2.72
2023-04-21T19:28:46.817Z,2.45
2023-04-21T19:31:14.047Z,2.97
2023-04-21T19:33:41.094Z,3.10
2023-04-21T19:36:09.497Z,2.55
2023-04-21T19:38:36.642Z,2.95
2023-04-21T19:41:03.685Z,2.92
2023-04-21T19:43:33.294Z,2.83
2023-04-21T19:46:02.811Z,2.53
2023-04-21T19:48:30.082Z,2.75
2023-04-21T19:50:57.066Z,3.83
2023-04-21T19:53:24.244Z,3.30
2023-04-21T19:55:52.484Z,3.88
2023-04-21T19:58:38.292Z,4.82
2023-04-21T20:01:07.537Z,3.35
2023-04-21T20:03:35.000Z,4.43
2023-04-21T20:06:04.869Z,3.92
2023-04-21T20:08:32.323Z,2.88
2023-04-21T20:10:59.343Z,3.78
2023-04-21T20:13:26.422Z,3.63
2023-04-21T20:15:53.568Z,3.20
2023-04-21T20:18:21.918Z,3.78
2023-04-21T20:20:48.928Z,3.63
2023-04-21T20:23:17.283Z,2.90
2023-04-21T20:25:44.404Z,3.13
2023-04-21T20:28:12.011Z,3.35
2023-04-21T20:30:40.738Z,3.75
2023-04-21T20:33:08.206Z,2.75
2023-04-21T20:35:40.581Z,3.40
2023-04-21T20:38:08.529Z,3.50
2023-04-21T20:40:36.295Z,3.90
2023-04-21T20:43:06.299Z,3.40
2023-04-21T20:45:34.502Z,3.63
2023-04-21T20:48:01.621Z,3.60
2023-04-21T20:50:28.756Z,3.38
2023-04-21T20:52:55.835Z,3.95
2023-04-21T20:55:22.974Z,3.92
2023-04-21T20:57:50.034Z,3.00
2023-04-21T21:00:17.380Z,3.95
2023-04-21T21:02:44.594Z,3.50
2023-04-21T21:05:11.784Z,3.60
2023-04-21T21:07:40.212Z,3.85
2023-04-21T21:10:10.914Z,3.13
2023-04-21T21:12:38.067Z,3.20
2023-04-21T21:15:05.916Z,3.30
2023-04-21T21:17:33.133Z,4.53
2023-04-21T21:20:00.252Z,3.85
2023-04-21T21:22:28.866Z,4.30
2023-04-21T21:24:56.129Z,4.88
2023-04-21T21:27:25.346Z,4.38
2023-04-21T21:29:52.550Z,4.72
2023-04-21T21:32:19.657Z,4.35
2023-04-21T21:34:48.298Z,5.97
2023-04-21T21:37:16.436Z,4.47
2023-04-21T21:39:44.217Z,4.85
2023-04-21T21:42:12.531Z,4.18
2023-04-21T21:44:39.684Z,3.85
2023-04-21T21:47:07.846Z,6.43
2023-04-21T21:49:34.789Z,5.00
2023-04-21T21:52:02.612Z,5.60
2023-04-21T21:54:29.556Z,5.80
2023-04-21T21:56:57.998Z,6.45
2023-04-21T21:59:25.358Z,4.90
2023-04-21T22:01:52.634Z,5.00
2023-04-21T22:04:19.766Z,4.97
2023-04-21T22:06:47.565Z,4.30
2023-04-21T22:09:15.791Z,4.32
2023-04-21T22:11:42.811Z,3.50
2023-04-21T22:14:21.813Z,4.60
2023-04-21T22:16:53.424Z,4.78
2023-04-21T22:19:21.062Z,4.00
2023-04-21T22:21:48.447Z,4.20
2023-04-21T22:24:15.525Z,4.05
2023-04-21T22:26:43.970Z,4.00
2023-04-21T22:29:11.006Z,4.63
2023-04-21T22:31:38.062Z,4.32
2023-04-21T22:34:05.458Z,5.97
2023-04-21T22:36:32.838Z,5.22
2023-04-21T22:38:59.808Z,5.47
2023-04-21T22:41:27.678Z,4.47
2023-04-21T22:43:54.920Z,4.00
2023-04-21T22:46:21.896Z,6.30
2023-04-21T22:48:51.257Z,5.82
2023-04-21T22:51:21.541Z,4.72
2023-04-21T22:53:48.597Z,3.78
2023-04-21T22:56:15.826Z,3.88
2023-04-21T22:58:43.355Z,4.63
2023-04-21T23:01:10.399Z,5.75
2023-04-21T23:03:37.452Z,3.72
2023-04-21T23:06:04.563Z,4.45
2023-04-21T23:08:31.596Z,5.32
2023-04-21T23:10:58.617Z,4.72
2023-04-21T23:13:25.804Z,4.15
2023-04-21T23:15:52.710Z,4.55
2023-04-21T23:18:19.771Z,4.68
2023-04-21T23:20:46.930Z,5.78
2023-04-21T23:23:14.205Z,4.38
2023-04-21T23:25:41.129Z,4.63
2023-04-21T23:28:08.116Z,5.25
2023-04-21T23:30:35.172Z,5.03
2023-04-21T23:33:02.345Z,4.93
2023-04-21T23:35:29.628Z,4.75
2023-04-21T23:37:56.772Z,4.65
2023-04-21T23:40:23.914Z,5.65
2023-04-21T23:42:50.991Z,5.20
2023-04-21T23:45:18.179Z,5.18
2023-04-21T23:47:45.874Z,4.28
2023-04-21T23:50:13.014Z,4.25
2023-04-21T23:52:42.217Z,4.82
2023-04-21T23:55:11.976Z,5.10
2023-04-21T23:57:39.143Z,5.22
